Time;durP1;ratioP1;P1;durP2;ratioP2;P2;SDS_P1;SDS_P2;PMS_P1;PMS_P2;Temp;Humidity;BMP_temperature;BMP_pressure;BME280_temperature;BME280_humidity;BME280_pressure;Samples;Min_cycle;Max_cycle;Signal;HPM_P1;HPM_P2
2022/07/22 00:01:59;;;;;;;5.05;1.83;;;20.90;99.90;;;;;;4977999;28;20446;-88
2022/07/22 00:04:28;;;;;;;3.65;1.70;;;20.90;99.90;;;;;;4995459;28;20034;-90
2022/07/22 00:07:03;;;;;;;4.20;2.03;;;20.80;99.90;;;;;;4997714;28;20034;-90
2022/07/22 00:12:58;;;;;;;;;;;20.80;99.90;;;;;;5001330;28;20485;-91
2022/07/22 00:15:24;;;;;;;2.72;1.42;;;20.80;99.90;;;;;;4976436;28;19949;-90
2022/07/22 00:17:50;;;;;;;3.88;1.80;;;20.70;99.90;;;;;;4987317;28;20026;-90
2022/07/22 00:20:19;;;;;;;3.58;2.00;;;20.70;99.90;;;;;;4984154;28;20525;-91
2022/07/22 00:22:47;;;;;;;5.13;2.38;;;20.70;99.90;;;;;;4985340;28;20039;-91
2022/07/22 00:25:17;;;;;;;3.53;1.75;;;20.70;99.90;;;;;;4997930;28;20076;-91
2022/07/22 00:27:54;;;;;;;4.57;1.80;;;20.70;99.90;;;;;;4976519;28;20468;-91
2022/07/22 00:30:19;;;;;;;3.97;2.20;;;20.70;99.90;;;;;;4994385;28;20115;-89
2022/07/22 00:32:45;;;;;;;4.70;1.60;;;20.60;99.90;;;;;;4995415;28;20069;-90
2022/07/22 00:35:11;;;;;;;2.85;1.50;;;20.60;99.90;;;;;;4982286;28;20495;-89
2022/07/22 00:37:37;;;;;;;5.10;1.80;;;20.70;99.90;;;;;;4976380;28;20152;-90
2022/07/22 00:40:03;;;;;;;4.50;1.55;;;20.70;99.90;;;;;;4996213;28;20034;-88
2022/07/22 00:42:28;;;;;;;4.43;1.80;;;20.70;99.90;;;;;;4983713;28;20041;-90
2022/07/22 00:44:57;;;;;;;4.10;1.67;;;20.80;99.90;;;;;;4998754;28;20113;-89
2022/07/22 00:47:23;;;;;;;3.35;1.60;;;20.70;99.90;;;;;;5002054;28;20032;-90
2022/07/22 00:49:49;;;;;;;3.78;1.73;;;20.70;99.90;;;;;;4999131;28;20521;-90
2022/07/22 00:52:15;;;;;;;4.15;2.13;;;20.70;99.90;;;;;;4993424;28;20031;-90
2022/07/22 00:54:41;;;;;;;3.13;1.40;;;20.70;99.90;;;;;;4977646;28;20852;-90
2022/07/22 00:57:09;;;;;;;3.97;1.85;;;20.60;99.90;;;;;;4983277;28;20018;-89
2022/07/22 00:59:45;;;;;;;5.68;1.90;;;20.50;99.90;;;;;;4978881;28;20026;-90
2022/07/22 01:02:11;;;;;;;2.95;1.48;;;20.60;99.90;;;;;;4979136;28;20030;-90
2022/07/22 01:04:37;;;;;;;4.35;1.85;;;20.60;99.90;;;;;;4981623;28;20053;-90
2022/07/22 01:07:29;;;;;;;3.47;1.27;;;20.60;99.90;;;;;;4982768;28;20081;-91
2022/07/22 01:09:54;;;;;;;;;;;20.60;99.90;;;;;;4996784;28;20084;-90
2022/07/22 01:12:24;;;;;;;3.47;1.70;;;20.60;99.90;;;;;;4982722;28;20004;-91
2022/07/22 01:14:52;;;;;;;2.80;1.35;;;20.60;99.90;;;;;;4984174;28;20025;-91
2022/07/22 01:17:18;;;;;;;3.75;1.52;;;20.60;99.90;;;;;;4973990;28;20026;-90
2022/07/22 01:19:48;;;;;;;4.55;2.10;;;20.50;99.90;;;;;;4983270;28;20026;-91
2022/07/22 01:22:13;;;;;;;5.97;1.70;;;20.50;99.90;;;;;;4978792;28;20081;-91
2022/07/22 01:24:39;;;;;;;4.55;1.95;;;20.50;99.90;;;;;;4982064;28;20417;-90
2022/07/22 01:27:07;;;;;;;3.65;1.88;;;20.50;99.90;;;;;;4981125;28;20030;-91
2022/07/22 01:33:02;;;;;;;3.17;1.80;;;20.40;99.90;;;;;;4997771;28;20049;-90
2022/07/22 01:35:28;;;;;;;4.93;1.73;;;20.40;99.90;;;;;;4997119;28;20033;-91
2022/07/22 01:37:54;;;;;;;3.78;1.75;;;20.30;99.90;;;;;;4994967;28;20027;-90
2022/07/22 01:40:20;;;;;;;3.05;1.50;;;20.30;99.90;;;;;;4978752;28;20116;-90
2022/07/22 01:42:45;;;;;;;4.40;2.08;;;20.20;99.90;;;;;;4995141;28;20037;-90
2022/07/22 01:45:11;;;;;;;5.78;2.00;;;20.20;99.90;;;;;;4980687;28;20043;-89
2022/07/22 01:47:37;;;;;;;3.28;1.63;;;20.10;99.90;;;;;;4977150;28;20274;-88
2022/07/22 01:50:05;;;;;;;4.50;2.08;;;20.10;99.90;;;;;;4977973;28;20037;-88
2022/07/22 01:52:31;;;;;;;3.65;1.83;;;20.10;99.90;;;;;;4977987;28;20120;-88
2022/07/22 01:54:57;;;;;;;4.55;2.10;;;20.10;99.90;;;;;;4984133;28;20022;-87
2022/07/22 01:57:22;;;;;;;3.00;1.77;;;20.00;99.90;;;;;;4980278;28;20018;-87
2022/07/22 01:59:51;;;;;;;4.80;1.75;;;20.00;99.90;;;;;;4980140;28;20542;-88
2022/07/22 02:02:17;;;;;;;5.40;2.30;;;20.00;99.90;;;;;;4995490;28;20022;-89
2022/07/22 02:04:43;;;;;;;3.08;1.77;;;19.90;99.90;;;;;;4981273;28;20102;-90
2022/07/22 02:07:08;;;;;;;3.03;1.77;;;19.80;99.90;;;;;;4977527;28;20042;-87
2022/07/22 02:09:34;;;;;;;4.90;2.42;;;19.80;99.90;;;;;;4998549;28;20036;-88
2022/07/22 02:11:59;;;;;;;5.20;2.50;;;19.70;99.90;;;;;;4979634;28;20026;-87
2022/07/22 02:14:25;;;;;;;4.03;2.40;;;19.70;99.90;;;;;;4992663;28;20326;-89
2022/07/22 02:16:51;;;;;;;3.92;2.00;;;19.70;99.90;;;;;;4978480;28;20049;-88
2022/07/22 02:19:16;;;;;;;6.57;2.33;;;19.80;99.90;;;;;;4978593;28;20029;-88
2022/07/22 02:21:42;;;;;;;3.30;1.98;;;19.70;99.90;;;;;;4978338;28;20034;-88
2022/07/22 02:24:08;;;;;;;3.63;2.00;;;19.80;99.90;;;;;;4977778;28;20117;-89
2022/07/22 02:26:34;;;;;;;5.32;1.88;;;19.80;99.90;;;;;;4974393;28;20026;-88
2022/07/22 02:29:00;;;;;;;5.35;2.03;;;19.70;99.90;;;;;;4985530;28;20367;-89
2022/07/22 02:31:25;;;;;;;4.45;2.15;;;19.70;99.90;;;;;;4977764;28;20085;-87
2022/07/22 02:33:51;;;;;;;3.83;1.80;;;19.60;99.90;;;;;;4978268;28;20030;-88
2022/07/22 02:36:17;;;;;;;5.47;1.90;;;19.60;99.90;;;;;;4993825;28;20455;-88
2022/07/22 02:38:43;;;;;;;3.63;2.08;;;19.50;99.90;;;;;;4979865;28;20101;-87
2022/07/22 02:41:08;;;;;;;4.50;2.03;;;19.50;99.90;;;;;;4978463;28;20026;-88
2022/07/22 02:43:34;;;;;;;5.80;2.40;;;19.40;99.90;;;;;;4980739;28;20027;-89
2022/07/22 02:46:00;;;;;;;5.03;2.33;;;19.40;99.90;;;;;;4982569;28;20022;-88
2022/07/22 02:48:25;;;;;;;4.57;2.13;;;19.40;99.90;;;;;;4980913;28;20029;-89
2022/07/22 02:50:51;;;;;;;4.07;2.08;;;19.40;99.90;;;;;;4978020;28;20037;-88
2022/07/22 02:53:17;;;;;;;5.30;2.17;;;19.40;99.90;;;;;;4978143;28;20596;-88
2022/07/22 02:55:42;;;;;;;4.07;2.40;;;19.40;99.90;;;;;;4977191;28;20052;-89
2022/07/22 02:58:09;;;;;;;5.28;2.25;;;19.30;99.90;;;;;;4980328;28;20022;-89
2022/07/22 03:00:37;;;;;;;4.63;2.20;;;19.30;99.90;;;;;;4980002;28;20032;-88
2022/07/22 03:03:03;;;;;;;4.53;2.28;;;19.30;99.90;;;;;;4977506;28;20027;-87
2022/07/22 03:05:29;;;;;;;5.63;2.65;;;19.30;99.90;;;;;;4979711;28;20085;-88
2022/07/22 03:07:55;;;;;;;5.40;2.33;;;19.30;99.90;;;;;;4995267;28;20053;-90
2022/07/22 03:10:23;;;;;;;4.70;2.35;;;19.30;99.90;;;;;;4978088;28;20495;-89
2022/07/22 03:12:49;;;;;;;3.97;2.10;;;19.20;99.90;;;;;;4997990;28;20101;-88
2022/07/22 03:15:18;;;;;;;3.65;2.15;;;19.30;99.90;;;;;;4997363;28;20057;-90
2022/07/22 03:17:43;;;;;;;5.20;2.38;;;19.30;99.90;;;;;;4975888;28;20514;-88
2022/07/22 03:20:10;;;;;;;4.18;2.20;;;19.20;99.90;;;;;;4982306;28;20030;-88
2022/07/22 03:22:39;;;;;;;5.47;2.30;;;19.20;99.90;;;;;;4979751;28;20046;-89
2022/07/22 03:25:10;;;;;;;5.10;2.60;;;19.20;99.90;;;;;;4991043;23;20205;-86
2022/07/22 03:27:36;;;;;;;5.50;2.53;;;19.20;99.90;;;;;;4972554;28;20034;-86
2022/07/22 03:30:04;;;;;;;5.00;2.65;;;19.20;99.90;;;;;;4975209;28;20030;-87
2022/07/22 03:32:30;;;;;;;5.00;2.65;;;19.20;99.90;;;;;;4971862;28;20105;-86
2022/07/22 03:34:55;;;;;;;5.32;2.35;;;19.00;99.90;;;;;;4971804;28;20242;-86
2022/07/22 03:37:24;;;;;;;5.20;2.63;;;19.10;99.90;;;;;;4991513;28;20042;-86
2022/07/22 03:39:52;;;;;;;5.60;2.90;;;19.10;99.90;;;;;;4971163;28;20060;-87
2022/07/22 03:42:26;;;;;;;5.63;2.78;;;19.00;99.90;;;;;;4972654;28;20040;-86
2022/07/22 03:45:03;;;;;;;5.82;2.42;;;18.90;99.90;;;;;;4982279;28;20044;-86
2022/07/22 03:48:07;;;;;;;;;;;;;;;;;;;;;
2022/07/22 03:50:44;;;;;;;6.20;2.42;;;18.90;99.90;;;;;;4988906;28;20023;-86
2022/07/22 03:53:09;;;;;;;5.18;2.55;;;19.00;99.90;;;;;;4984567;28;20026;-87
2022/07/22 03:55:38;;;;;;;4.82;2.50;;;18.90;99.90;;;;;;4988705;28;20034;-86
2022/07/22 03:58:17;;;;;;;4.93;2.40;;;18.90;99.90;;;;;;4971658;28;20034;-85
2022/07/22 04:00:46;;;;;;;4.20;2.25;;;19.00;99.90;;;;;;4983366;28;20026;-86
2022/07/22 04:03:26;;;;;;;6.07;3.08;;;18.90;99.90;;;;;;4989306;28;20019;-86
2022/07/22 04:06:06;;;;;;;4.38;2.30;;;18.90;99.90;;;;;;4960531;28;20057;-86
2022/07/22 04:08:42;;;;;;;5.72;2.78;;;18.90;99.90;;;;;;4977774;28;20135;-86
2022/07/22 04:11:10;;;;;;;5.13;2.38;;;18.90;99.90;;;;;;4989012;28;20486;-87
2022/07/22 04:13:41;;;;;;;6.22;2.63;;;18.80;99.90;;;;;;4971255;28;20030;-86
2022/07/22 04:16:14;;;;;;;7.93;2.50;;;18.80;99.90;;;;;;4989083;28;20019;-86
2022/07/22 04:18:54;;;;;;;5.95;2.75;;;18.80;99.90;;;;;;4972830;28;20053;-86
2022/07/22 04:21:23;;;;;;;5.65;2.95;;;18.80;99.90;;;;;;4970680;28;21307;-87
2022/07/22 04:23:54;;;;;;;5.10;2.63;;;18.80;99.90;;;;;;4969043;28;20121;-86
2022/07/22 04:26:19;;;;;;;4.65;2.70;;;18.80;99.90;;;;;;4992548;28;20031;-86
2022/07/22 04:28:45;;;;;;;5.80;2.50;;;18.80;99.90;;;;;;4977319;28;20096;-86
2022/07/22 04:31:11;;;;;;;4.43;2.53;;;18.80;99.90;;;;;;4970396;28;20396;-86
2022/07/22 04:33:37;;;;;;;6.45;2.95;;;18.90;99.90;;;;;;4975572;28;20026;-86
2022/07/22 04:36:03;;;;;;;4.55;2.40;;;19.00;99.90;;;;;;4992098;28;20027;-86
2022/07/22 04:38:28;;;;;;;5.03;2.50;;;19.00;99.90;;;;;;4974771;28;20065;-86
2022/07/22 04:40:55;;;;;;;5.57;2.53;;;19.10;99.90;;;;;;4977359;28;20100;-86
2022/07/22 04:43:24;;;;;;;6.63;3.05;;;19.10;99.90;;;;;;4972771;28;20050;-86
2022/07/22 04:45:52;;;;;;;5.85;2.58;;;19.20;99.90;;;;;;4994851;28;20022;-86
2022/07/22 04:48:19;;;;;;;4.05;2.35;;;19.10;99.90;;;;;;4974204;28;20030;-86
2022/07/22 04:50:45;;;;;;;7.63;2.97;;;19.30;99.90;;;;;;4973108;28;20561;-87
2022/07/22 04:53:10;;;;;;;6.30;3.00;;;19.30;99.90;;;;;;4991098;28;20042;-86
2022/07/22 04:55:36;;;;;;;5.30;2.92;;;19.30;99.90;;;;;;4976757;28;20037;-86
2022/07/22 04:58:02;;;;;;;7.50;3.38;;;19.40;99.90;;;;;;4991829;28;20131;-87
2022/07/22 05:00:28;;;;;;;10.18;2.92;;;19.40;99.90;;;;;;4991108;28;20178;-86
2022/07/22 05:02:54;;;;;;;6.25;2.67;;;19.50;99.90;;;;;;4974177;28;20061;-85
2022/07/22 05:05:20;;;;;;;4.85;3.00;;;19.50;99.90;;;;;;4989978;28;20434;-86
2022/07/22 05:07:45;;;;;;;4.40;2.47;;;19.60;99.90;;;;;;4989639;28;20069;-87
2022/07/22 05:10:11;;;;;;;6.50;2.90;;;19.60;99.90;;;;;;4970983;28;20022;-86
2022/07/22 05:12:37;;;;;;;6.10;2.78;;;19.50;99.90;;;;;;4973575;28;20031;-86
2022/07/22 05:15:03;;;;;;;8.02;3.15;;;19.40;99.90;;;;;;4973333;28;20037;-86
2022/07/22 05:17:29;;;;;;;5.63;2.97;;;19.50;99.90;;;;;;4991236;28;20029;-86
2022/07/22 05:19:54;;;;;;;6.75;3.35;;;19.50;99.90;;;;;;4974437;28;20034;-86
2022/07/22 05:22:20;;;;;;;5.53;3.13;;;19.70;99.90;;;;;;4971577;28;20080;-87
2022/07/22 05:24:45;;;;;;;5.38;3.17;;;19.70;99.90;;;;;;4971692;28;20034;-87
2022/07/22 05:27:11;;;;;;;6.70;3.30;;;19.80;99.90;;;;;;4990762;28;20026;-86
2022/07/22 05:29:37;;;;;;;6.00;3.00;;;19.80;99.90;;;;;;4971779;28;20030;-87
2022/07/22 05:32:03;;;;;;;5.55;3.05;;;19.90;99.90;;;;;;4990660;28;20037;-86
2022/07/22 05:34:29;;;;;;;4.75;2.50;;;19.90;99.90;;;;;;4972782;28;20423;-86
2022/07/22 05:36:54;;;;;;;6.40;3.10;;;20.00;99.90;;;;;;4967894;28;20050;-86
2022/07/22 05:39:20;;;;;;;6.00;3.10;;;20.00;99.90;;;;;;4974691;28;20403;-86
2022/07/22 05:41:46;;;;;;;4.97;2.72;;;20.10;99.90;;;;;;4973800;28;20034;-87
2022/07/22 05:44:11;;;;;;;5.55;2.88;;;20.20;99.90;;;;;;4989093;28;20074;-87
2022/07/22 05:46:37;;;;;;;5.30;2.85;;;20.30;99.90;;;;;;4971802;28;20037;-87
2022/07/22 05:49:03;;;;;;;5.40;2.60;;;20.30;99.90;;;;;;4971408;28;20487;-86
2022/07/22 05:51:29;;;;;;;5.30;2.45;;;20.40;99.90;;;;;;4991065;28;20033;-87
2022/07/22 05:53:54;;;;;;;6.40;3.17;;;20.50;99.90;;;;;;4973437;28;20027;-86
2022/07/22 05:56:20;;;;;;;5.35;2.63;;;20.60;99.90;;;;;;4973954;28;20025;-86
2022/07/22 05:58:46;;;;;;;7.00;3.60;;;20.60;99.90;;;;;;4971272;28;20499;-85
2022/07/22 06:01:12;;;;;;;4.68;2.65;;;20.70;99.90;;;;;;4991591;28;20029;-88
2022/07/22 06:03:38;;;;;;;6.05;2.90;;;20.80;99.90;;;;;;4974456;28;20041;-87
2022/07/22 06:06:04;;;;;;;5.80;3.28;;;20.80;99.90;;;;;;4973294;28;20022;-88
2022/07/22 06:08:30;;;;;;;6.53;3.35;;;20.90;99.90;;;;;;4971652;28;20400;-87
2022/07/22 06:11:01;;;;;;;5.95;3.25;;;21.00;99.90;;;;;;4975016;28;20121;-86
2022/07/22 06:13:27;;;;;;;6.45;2.80;;;21.00;99.90;;;;;;4988329;28;20034;-87
2022/07/22 06:15:53;;;;;;;6.28;3.17;;;21.10;99.90;;;;;;4991671;28;20033;-87
2022/07/22 06:18:19;;;;;;;6.00;3.20;;;21.10;99.90;;;;;;4973581;28;20018;-87
2022/07/22 06:20:45;;;;;;;5.53;3.17;;;21.20;99.90;;;;;;4969200;28;20037;-88
2022/07/22 06:23:10;;;;;;;6.38;3.45;;;21.20;99.90;;;;;;4972211;28;20036;-87
2022/07/22 06:25:36;;;;;;;6.15;3.30;;;21.30;99.90;;;;;;4989026;28;20034;-87
2022/07/22 06:28:03;;;;;;;6.45;3.80;;;21.30;99.90;;;;;;4976932;28;20041;-87
2022/07/22 06:30:29;;;;;;;8.98;3.55;;;21.30;99.90;;;;;;4997515;28;20022;-87
2022/07/22 06:32:56;;;;;;;8.38;2.97;;;21.40;99.90;;;;;;4995859;28;20105;-89
2022/07/22 06:35:24;;;;;;;8.38;3.63;;;21.50;99.90;;;;;;4979450;28;20023;-88
2022/07/22 06:37:52;;;;;;;7.82;3.95;;;21.60;99.90;;;;;;4990588;28;20023;-87
2022/07/22 06:40:20;;;;;;;6.30;3.25;;;21.60;99.90;;;;;;4973060;28;20030;-87
2022/07/22 06:42:48;;;;;;;6.25;3.20;;;21.80;99.90;;;;;;4973035;28;20109;-88
2022/07/22 06:45:13;;;;;;;7.57;3.58;;;21.80;99.90;;;;;;4972841;28;20124;-87
2022/07/22 06:47:39;;;;;;;8.25;3.47;;;21.90;99.90;;;;;;4983878;28;20055;-87
2022/07/22 06:50:06;;;;;;;6.60;3.58;;;21.90;99.90;;;;;;4962435;28;20034;-88
2022/07/22 06:52:32;;;;;;;9.73;3.33;;;22.00;99.90;;;;;;4970589;28;20030;-89
2022/07/22 06:54:58;;;;;;;6.20;3.63;;;22.00;99.90;;;;;;4966400;28;21443;-88
2022/07/22 06:57:24;;;;;;;8.85;3.88;;;22.20;99.90;;;;;;4991329;28;20033;-88
2022/07/22 06:59:50;;;;;;;6.38;3.55;;;22.20;99.90;;;;;;4966926;28;20036;-87
2022/07/22 07:02:16;;;;;;;7.00;3.85;;;22.30;99.90;;;;;;4967866;28;20065;-85
2022/07/22 07:04:41;;;;;;;6.53;3.40;;;22.40;99.90;;;;;;4989976;28;20048;-92
2022/07/22 07:07:08;;;;;;;6.65;3.55;;;22.50;99.90;;;;;;4975152;28;20463;-91
2022/07/22 07:09:34;;;;;;;9.02;3.58;;;22.50;99.90;;;;;;4975225;28;20723;-91
2022/07/22 07:12:00;;;;;;;8.15;3.97;;;22.60;99.90;;;;;;4989740;28;20072;-91
2022/07/22 07:14:26;;;;;;;8.68;4.10;;;22.80;99.90;;;;;;4996820;28;20046;-92
2022/07/22 07:16:54;;;;;;;7.97;4.10;;;22.80;99.90;;;;;;4992537;28;20368;-91
2022/07/22 07:19:20;;;;;;;7.55;3.78;;;23.10;99.90;;;;;;4982649;28;20068;-90
2022/07/22 07:21:46;;;;;;;6.60;3.45;;;23.00;99.90;;;;;;4990978;28;20438;-91
2022/07/22 07:24:11;;;;;;;7.18;3.70;;;23.00;99.90;;;;;;4971870;28;20053;-90
2022/07/22 07:26:37;;;;;;;6.28;3.40;;;23.10;99.90;;;;;;4972191;28;20034;-91
2022/07/22 07:29:03;;;;;;;7.07;4.07;;;23.30;99.90;;;;;;4970120;28;20158;-89
2022/07/22 07:31:29;;;;;;;7.05;3.50;;;23.30;99.90;;;;;;4972950;28;20023;-91
2022/07/22 07:33:55;;;;;;;8.38;3.70;;;23.30;99.90;;;;;;4977570;28;20101;-90
2022/07/22 07:37:15;;;;;;;9.13;3.60;;;23.50;99.90;;;;;;4972597;28;20023;-92
2022/07/22 07:40:49;;;;;;;7.47;3.78;;;23.60;99.90;;;;;;4967850;28;20157;-93
2022/07/22 07:45:57;;;;;;;4.88;2.85;;;23.80;99.90;;;;;;5021638;23;20137;-91
2022/07/22 07:49:21;;;;;;;;;;;;;;;;;;;;;
2022/07/22 07:52:06;;;;;;;5.90;3.13;;;24.00;99.90;;;;;;4998553;28;20042;-93
2022/07/22 07:55:09;;;;;;;6.88;3.90;;;24.10;99.90;;;;;;4987577;28;20380;-92
2022/07/22 07:58:42;;;;;;;9.38;3.90;;;24.30;99.90;;;;;;4971036;28;20022;-92
2022/07/22 08:01:22;;;;;;;8.27;3.35;;;24.20;99.90;;;;;;4974382;28;20046;-93
2022/07/22 08:05:07;;;;;;;;;;;;;;;;;;;;;
2022/07/22 08:07:22;;;;;;;6.35;3.10;;;24.50;99.90;;;;;;4989034;28;20270;-90
2022/07/22 08:09:48;;;;;;;7.15;3.42;;;24.60;99.90;;;;;;4982895;28;20085;-91
2022/07/22 08:12:14;;;;;;;7.13;3.40;;;24.80;99.90;;;;;;4979977;28;20026;-90
2022/07/22 08:14:40;;;;;;;9.10;3.95;;;24.80;99.90;;;;;;4982533;28;20022;-90
2022/07/22 08:17:06;;;;;;;5.72;3.30;;;24.90;99.90;;;;;;4985742;28;20054;-91
2022/07/22 08:19:32;;;;;;;6.85;3.45;;;25.10;99.90;;;;;;4976914;28;20018;-91
2022/07/22 08:21:57;;;;;;;5.38;3.20;;;25.10;99.90;;;;;;4985018;28;20169;-90
2022/07/22 08:24:40;;;;;;;5.40;2.85;;;25.50;99.90;;;;;;4978219;28;20471;-91
2022/07/22 08:27:41;;;;;;;5.93;2.92;;;25.50;99.90;;;;;;4965062;28;20042;-91
2022/07/22 08:30:28;;;;;;;8.07;3.42;;;25.80;99.90;;;;;;4978142;28;20126;-91
2022/07/22 09:37:49;;;;;;;4.85;2.20;;;27.90;96.30;;;;;;4994290;28;20407;-93
2022/07/22 09:40:41;;;;;;;4.00;1.98;;;27.90;96.00;;;;;;4982158;28;20026;-94
2022/07/22 09:47:00;;;;;;;3.30;1.88;;;28.20;95.50;;;;;;4964105;28;20047;-93
2022/07/22 09:50:13;;;;;;;3.47;1.77;;;28.50;95.30;;;;;;4976651;28;20089;-94
2022/07/22 09:52:48;;;;;;;3.25;1.80;;;28.50;96.20;;;;;;4885209;29;20028;-91
2022/07/22 09:55:23;;;;;;;4.07;2.00;;;28.60;95.50;;;;;;4901918;28;20036;-91
2022/07/22 09:57:53;;;;;;;3.75;1.98;;;28.60;94.80;;;;;;4961659;28;20023;-91
2022/07/22 10:00:30;;;;;;;4.25;2.42;;;28.70;95.20;;;;;;4964590;28;20050;-90
2022/07/22 10:03:02;;;;;;;3.83;2.17;;;29.00;96.20;;;;;;4962289;28;20141;-92
2022/07/22 10:05:41;;;;;;;4.65;2.20;;;29.00;94.40;;;;;;4957616;28;20027;-91
2022/07/22 10:08:10;;;;;;;5.43;2.08;;;29.10;94.20;;;;;;4954228;28;20050;-91
2022/07/22 10:10:46;;;;;;;4.88;2.50;;;29.20;94.90;;;;;;4968981;28;20026;-91
2022/07/22 10:13:12;;;;;;;5.03;2.35;;;29.50;94.70;;;;;;4951026;28;20109;-91
2022/07/22 10:15:38;;;;;;;4.03;2.15;;;29.60;93.90;;;;;;4941288;28;20035;-90
2022/07/22 10:18:14;;;;;;;3.95;1.95;;;29.40;93.30;;;;;;4942299;29;20099;-90
2022/07/22 10:20:46;;;;;;;5.13;2.25;;;29.60;94.40;;;;;;4965710;28;20030;-92
2022/07/22 10:23:20;;;;;;;4.75;2.30;;;29.70;94.00;;;;;;4967317;28;20027;-92
2022/07/22 10:26:15;;;;;;;4.30;2.10;;;29.70;93.90;;;;;;4954094;28;20081;-91
2022/07/22 10:28:41;;;;;;;3.85;2.10;;;29.80;93.50;;;;;;4953429;28;20373;-91
2022/07/22 10:31:20;;;;;;;4.03;2.22;;;29.60;93.10;;;;;;4951722;28;20057;-90
2022/07/22 10:33:55;;;;;;;3.70;2.05;;;29.60;93.40;;;;;;4945475;28;20403;-90
2022/07/22 10:36:31;;;;;;;5.93;2.45;;;29.90;93.20;;;;;;4953521;28;20030;-90
2022/07/22 10:39:11;;;;;;;3.75;2.30;;;30.60;93.30;;;;;;4969423;28;20079;-91
2022/07/22 10:41:45;;;;;;;3.53;2.05;;;30.90;92.30;;;;;;4968261;28;20015;-90
2022/07/22 10:44:13;;;;;;;4.38;2.38;;;31.20;92.60;;;;;;4949927;28;20503;-91
2022/07/22 10:46:58;;;;;;;4.20;2.25;;;31.50;91.70;;;;;;4969815;28;20027;-89
2022/07/22 10:49:28;;;;;;;4.60;2.40;;;31.70;90.90;;;;;;4964985;28;20110;-89
2022/07/22 10:52:07;;;;;;;4.53;2.13;;;31.90;90.80;;;;;;4951559;28;20054;-90
2022/07/22 10:54:33;;;;;;;5.55;2.55;;;32.00;91.30;;;;;;4952108;28;20399;-91
2022/07/22 10:57:02;;;;;;;4.78;2.15;;;32.20;90.90;;;;;;4952109;28;20025;-90
2022/07/22 10:59:28;;;;;;;3.92;2.28;;;32.30;89.80;;;;;;4948685;28;20042;-91
2022/07/22 11:02:04;;;;;;;3.80;2.13;;;32.50;90.00;;;;;;4968100;28;20023;-90
2022/07/22 11:04:29;;;;;;;4.38;1.90;;;32.80;90.10;;;;;;4952606;28;20035;-91
2022/07/22 11:07:06;;;;;;;3.72;2.05;;;32.60;88.00;;;;;;4972405;28;21057;-90
2022/07/22 11:09:45;;;;;;;5.70;2.10;;;32.50;87.50;;;;;;4956214;28;20114;-90
2022/07/22 11:12:15;;;;;;;4.38;2.30;;;32.70;87.70;;;;;;4963414;28;20018;-88
2022/07/22 11:14:42;;;;;;;4.50;2.00;;;32.90;88.00;;;;;;4976834;28;20038;-89
2022/07/22 11:17:13;;;;;;;5.15;2.10;;;33.00;85.30;;;;;;4962103;28;20265;-90
2022/07/22 11:19:50;;;;;;;3.63;1.83;;;33.10;84.20;;;;;;4972428;28;20073;-91
2022/07/22 11:22:18;;;;;;;3.05;1.85;;;33.10;85.00;;;;;;4957439;28;20027;-90
2022/07/22 11:24:57;;;;;;;3.55;1.77;;;33.20;85.90;;;;;;4951032;28;20027;-93
2022/07/22 11:27:23;;;;;;;4.50;2.53;;;33.50;84.60;;;;;;4967123;28;20135;-90
2022/07/22 11:29:52;;;;;;;4.22;1.83;;;33.70;83.00;;;;;;4942793;28;20019;-89
2022/07/22 11:32:20;;;;;;;2.25;1.60;;;33.60;81.10;;;;;;4956306;28;20026;-89
2022/07/22 11:34:47;;;;;;;4.30;2.15;;;33.60;80.80;;;;;;4954013;28;20479;-89
2022/07/22 11:37:25;;;;;;;4.15;2.08;;;33.90;81.40;;;;;;4956601;28;20046;-89
2022/07/22 11:40:03;;;;;;;2.95;2.00;;;34.10;79.70;;;;;;4956879;28;20035;-89
2022/07/22 11:42:31;;;;;;;3.78;1.73;;;34.00;79.80;;;;;;4970229;28;20196;-89
2022/07/22 11:44:59;;;;;;;3.70;2.05;;;33.60;78.60;;;;;;4954412;28;20035;-89
2022/07/22 11:47:24;;;;;;;3.40;1.90;;;33.80;79.10;;;;;;4956091;28;20026;-90
2022/07/22 11:49:51;;;;;;;2.92;1.80;;;33.90;79.00;;;;;;4954061;28;20045;-89
2022/07/22 11:52:25;;;;;;;3.95;1.83;;;34.20;77.90;;;;;;4952457;28;20027;-90
2022/07/22 11:54:52;;;;;;;4.40;1.60;;;34.40;76.50;;;;;;4955626;28;20488;-91
2022/07/22 12:00:45;;;;;;;3.65;1.80;;;34.80;76.40;;;;;;4967917;28;20447;-91
2022/07/22 12:03:22;;;;;;;;;;;34.90;76.40;;;;;;4948366;28;20023;-91
2022/07/22 12:05:52;;;;;;;3.88;2.00;;;34.70;75.90;;;;;;4943517;29;19948;-90
2022/07/22 12:11:42;;;;;;;3.28;1.70;;;34.50;75.30;;;;;;4971081;28;20130;-91
2022/07/22 12:14:26;;;;;;;4.72;1.85;;;34.40;74.40;;;;;;4956423;28;20418;-91
2022/07/22 12:17:11;;;;;;;3.22;1.75;;;34.50;73.40;;;;;;4952549;29;20031;-91
2022/07/22 12:23:14;;;;;;;5.57;1.98;;;34.60;71.60;;;;;;4970818;28;20026;-91
2022/07/22 12:26:12;;;;;;;3.58;1.80;;;35.00;73.00;;;;;;4971489;28;20026;-91
2022/07/22 12:29:16;;;;;;;3.10;1.75;;;34.80;72.70;;;;;;4946603;28;20023;-91
2022/07/22 12:31:59;;;;;;;2.45;1.52;;;35.10;73.40;;;;;;4950242;28;20022;-91
2022/07/22 12:34:54;;;;;;;2.75;1.65;;;35.10;73.30;;;;;;4948568;28;20031;-91
2022/07/22 12:37:31;;;;;;;2.88;1.45;;;35.70;72.10;;;;;;4958133;28;20039;-93
2022/07/22 12:40:21;;;;;;;2.65;1.60;;;35.30;69.90;;;;;;4973822;28;20129;-91
2022/07/22 12:43:04;;;;;;;2.63;1.30;;;35.40;71.20;;;;;;4957028;28;20038;-91
2022/07/22 12:45:42;;;;;;;2.70;1.67;;;35.60;69.90;;;;;;4951808;28;20054;-91
2022/07/22 12:48:44;;;;;;;3.47;1.45;;;35.80;69.90;;;;;;4956813;28;20031;-91
2022/07/22 12:51:14;;;;;;;2.30;1.30;;;36.00;68.90;;;;;;4958031;28;20035;-89
2022/07/22 12:53:43;;;;;;;3.70;1.70;;;35.70;68.40;;;;;;4959158;28;20471;-90
2022/07/22 12:56:12;;;;;;;2.43;1.20;;;36.00;68.10;;;;;;4959314;28;20506;-91
2022/07/22 12:58:49;;;;;;;3.13;1.52;;;36.00;67.00;;;;;;4956753;28;20033;-90
2022/07/22 13:01:17;;;;;;;2.80;1.58;;;36.00;68.30;;;;;;4956192;28;20027;-91
2022/07/22 13:03:48;;;;;;;3.20;1.80;;;36.20;68.30;;;;;;4957714;28;20027;-89
2022/07/22 13:06:15;;;;;;;3.25;1.60;;;36.40;67.20;;;;;;4954208;28;20048;-90
2022/07/22 13:08:43;;;;;;;2.72;1.40;;;36.70;68.80;;;;;;4957179;28;20037;-90
2022/07/22 13:11:10;;;;;;;2.92;1.50;;;36.80;67.10;;;;;;4975627;28;20030;-91
2022/07/22 13:17:35;;;;;;;2.40;1.50;;;36.30;67.10;;;;;;4977966;28;20077;-90
2022/07/22 13:20:13;;;;;;;2.88;1.60;;;36.60;66.50;;;;;;4953070;28;20110;-90
2022/07/22 13:30:27;;;;;;;;;;;;;;;;;;;;;
2022/07/22 13:39:52;;;;;;;;;;;;;;;;;;;;;
2022/07/22 13:49:40;;;;;;;2.60;1.60;;;37.40;60.80;;;;;;4977782;28;20058;-92
2022/07/22 15:08:13;;;;;;;2.85;1.40;;;36.80;59.20;;;;;;4999566;28;20050;-93
2022/07/22 15:20:56;;;;;;;2.40;1.45;;;37.30;57.70;;;;;;4957133;29;20579;-91
2022/07/22 15:25:59;;;;;;;3.45;1.35;;;37.20;58.60;;;;;;5038574;22;20050;-92
2022/07/22 15:29:01;;;;;;;2.35;1.30;;;37.40;58.20;;;;;;4998110;28;20057;-92
2022/07/22 15:32:03;;;;;;;2.42;1.33;;;37.20;58.20;;;;;;4889325;29;20494;-92
2022/07/22 15:34:34;;;;;;;2.65;1.50;;;37.10;58.60;;;;;;4863505;29;20036;-92
2022/07/22 15:37:00;;;;;;;3.08;1.60;;;36.80;59.30;;;;;;4859714;29;20030;-91
2022/07/22 15:39:26;;;;;;;2.88;1.58;;;36.70;58.70;;;;;;4863993;29;20025;-92
2022/07/22 15:41:54;;;;;;;2.65;1.45;;;36.80;61.00;;;;;;4912105;28;20177;-92
2022/07/22 15:44:20;;;;;;;2.50;1.42;;;36.90;59.00;;;;;;4975974;28;20026;-94
2022/07/22 15:46:54;;;;;;;2.65;1.20;;;36.80;59.40;;;;;;4972779;28;20026;-93
2022/07/22 15:49:22;;;;;;;3.47;1.60;;;36.70;59.20;;;;;;4964116;28;20118;-92
2022/07/22 15:55:21;;;;;;;3.13;1.40;;;36.40;58.50;;;;;;4992580;28;20371;-92
2022/07/22 16:00:34;;;;;;;2.55;1.58;;;35.80;60.40;;;;;;4990762;28;20126;-92
2022/07/22 16:03:03;;;;;;;2.45;1.42;;;35.90;59.20;;;;;;4969090;28;20027;-92
2022/07/22 16:05:29;;;;;;;2.58;1.30;;;35.50;58.60;;;;;;4977593;28;20033;-92
2022/07/22 16:07:57;;;;;;;3.15;1.58;;;35.50;60.80;;;;;;4963663;28;20113;-92
2022/07/22 16:10:37;;;;;;;4.10;1.83;;;35.20;60.60;;;;;;4966010;28;20026;-92
2022/07/22 16:13:03;;;;;;;;;;;34.90;60.00;;;;;;4975497;28;20113;-92
2022/07/22 16:15:31;;;;;;;3.13;1.50;;;34.80;59.70;;;;;;4973176;28;19946;-92
2022/07/22 16:18:00;;;;;;;3.65;1.70;;;34.00;60.50;;;;;;4985277;28;20029;-93
2022/07/22 16:20:36;;;;;;;3.13;1.85;;;33.80;61.80;;;;;;4983514;28;20050;-92
2022/07/22 16:23:07;;;;;;;2.72;1.52;;;33.40;61.80;;;;;;4992842;28;20026;-91
2022/07/22 16:25:42;;;;;;;3.55;1.80;;;33.40;62.80;;;;;;4971301;28;20062;-92
2022/07/22 16:28:18;;;;;;;4.80;1.80;;;33.30;64.10;;;;;;4977340;28;20031;-92
2022/07/22 16:30:44;;;;;;;3.15;1.75;;;33.30;64.20;;;;;;4978866;28;20062;-92
2022/07/22 16:33:28;;;;;;;2.75;1.60;;;33.30;63.60;;;;;;4976425;28;20030;-92
2022/07/22 16:36:24;;;;;;;3.35;1.50;;;33.50;63.70;;;;;;4979527;28;20034;-92
2022/07/22 16:39:23;;;;;;;2.90;1.77;;;33.40;62.90;;;;;;4981329;28;20022;-91
2022/07/22 16:41:57;;;;;;;2.25;1.42;;;33.40;63.60;;;;;;4965135;28;20058;-92
2022/07/22 16:44:40;;;;;;;2.33;1.42;;;33.20;62.40;;;;;;4972496;28;20515;-92